sensor_id;sensor_type;location;lat;lon;timestamp;P1;durP1;ratioP1;P2;durP2;ratioP2
5125;SDS011;63008;53.112;8.896;2022-09-27T00:00:14;11.33;;;10.23;;
5125;SDS011;63008;53.112;8.896;2022-09-27T00:02:16;13.77;;;12.37;;
5125;SDS011;63008;53.112;8.896;2022-09-27T00:04:17;14.00;;;12.60;;
5125;SDS011;63008;53.112;8.896;2022-09-27T00:06:20;14.33;;;13.03;;
5125;SDS011;63008;53.112;8.896;2022-09-27T00:08:24;13.37;;;12.17;;
5125;SDS011;63008;53.112;8.896;2022-09-27T00:10:25;15.23;;;12.03;;
5125;SDS011;63008;53.112;8.896;2022-09-27T00:12:26;13.70;;;12.40;;
5125;SDS011;63008;53.112;8.896;2022-09-27T00:14:27;12.90;;;11.70;;
5125;SDS011;63008;53.112;8.896;2022-09-27T00:16:29;13.27;;;12.07;;
5125;SDS011;63008;53.112;8.896;2022-09-27T00:18:33;13.80;;;12.40;;
5125;SDS011;63008;53.112;8.896;2022-09-27T00:20:34;14.47;;;12.93;;
5125;SDS011;63008;53.112;8.896;2022-09-27T00:22:35;12.97;;;11.67;;
5125;SDS011;63008;53.112;8.896;2022-09-27T00:24:36;15.20;;;12.03;;
5125;SDS011;63008;53.112;8.896;2022-09-27T00:26:37;13.77;;;12.37;;
5125;SDS011;63008;53.112;8.896;2022-09-27T00:28:39;13.07;;;11.73;;
5125;SDS011;63008;53.112;8.896;2022-09-27T00:30:41;16.13;;;14.53;;
5125;SDS011;63008;53.112;8.896;2022-09-27T00:32:42;14.90;;;12.27;;
5125;SDS011;63008;53.112;8.896;2022-09-27T00:34:43;15.30;;;12.50;;
5125;SDS011;63008;53.112;8.896;2022-09-27T00:36:45;14.07;;;12.57;;
5125;SDS011;63008;53.112;8.896;2022-09-27T00:38:47;16.50;;;12.87;;
5125;SDS011;63008;53.112;8.896;2022-09-27T00:40:48;17.73;;;15.83;;
5125;SDS011;63008;53.112;8.896;2022-09-27T00:42:50;15.63;;;13.50;;
5125;SDS011;63008;53.112;8.896;2022-09-27T00:44:58;16.90;;;15.10;;
5125;SDS011;63008;53.112;8.896;2022-09-27T00:47:06;17.57;;;15.10;;
5125;SDS011;63008;53.112;8.896;2022-09-27T00:49:53;21.13;;;16.07;;
5125;SDS011;63008;53.112;8.896;2022-09-27T00:51:59;19.83;;;15.90;;
5125;SDS011;63008;53.112;8.896;2022-09-27T00:54:04;18.53;;;15.13;;
5125;SDS011;63008;53.112;8.896;2022-09-27T00:56:10;26.83;;;18.27;;
5125;SDS011;63008;53.112;8.896;2022-09-27T00:58:20;21.13;;;17.03;;
5125;SDS011;63008;53.112;8.896;2022-09-27T01:00:25;23.50;;;18.43;;
5125;SDS011;63008;53.112;8.896;2022-09-27T01:02:27;22.43;;;18.80;;
5125;SDS011;63008;53.112;8.896;2022-09-27T01:04:29;22.83;;;17.50;;
5125;SDS011;63008;53.112;8.896;2022-09-27T01:06:32;26.77;;;18.53;;
5125;SDS011;63008;53.112;8.896;2022-09-27T01:08:33;31.03;;;21.13;;
5125;SDS011;63008;53.112;8.896;2022-09-27T01:10:37;33.37;;;21.70;;
5125;SDS011;63008;53.112;8.896;2022-09-27T01:13:06;32.27;;;21.90;;
5125;SDS011;63008;53.112;8.896;2022-09-27T01:15:18;28.83;;;22.10;;
5125;SDS011;63008;53.112;8.896;2022-09-27T01:22:14;30.33;;;21.30;;
5125;SDS011;63008;53.112;8.896;2022-09-27T01:33:46;43.00;;;24.03;;
5125;SDS011;63008;53.112;8.896;2022-09-27T01:36:04;36.50;;;24.67;;
5125;SDS011;63008;53.112;8.896;2022-09-27T01:38:29;62.33;;;27.83;;
5125;SDS011;63008;53.112;8.896;2022-09-27T01:47:21;45.33;;;25.40;;
5125;SDS011;63008;53.112;8.896;2022-09-27T01:49:32;44.20;;;25.67;;
5125;SDS011;63008;53.112;8.896;2022-09-27T01:51:44;41.67;;;24.00;;
5125;SDS011;63008;53.112;8.896;2022-09-27T01:53:51;39.33;;;21.97;;
5125;SDS011;63008;53.112;8.896;2022-09-27T01:55:54;36.17;;;19.00;;
5125;SDS011;63008;53.112;8.896;2022-09-27T01:57:57;30.57;;;17.20;;
5125;SDS011;63008;53.112;8.896;2022-09-27T02:00:07;26.53;;;16.60;;
5125;SDS011;63008;53.112;8.896;2022-09-27T02:02:10;26.97;;;16.40;;
5125;SDS011;63008;53.112;8.896;2022-09-27T02:04:16;22.03;;;14.70;;
5125;SDS011;63008;53.112;8.896;2022-09-27T02:06:44;30.87;;;15.90;;
5125;SDS011;63008;53.112;8.896;2022-09-27T02:09:01;26.60;;;16.20;;
5125;SDS011;63008;53.112;8.896;2022-09-27T02:11:10;26.50;;;15.30;;
5125;SDS011;63008;53.112;8.896;2022-09-27T02:13:18;31.73;;;17.30;;
5125;SDS011;63008;53.112;8.896;2022-09-27T02:15:27;25.50;;;17.33;;
5125;SDS011;63008;53.112;8.896;2022-09-27T02:20:07;26.07;;;16.67;;
5125;SDS011;63008;53.112;8.896;2022-09-27T02:24:39;29.70;;;15.73;;
5125;SDS011;63008;53.112;8.896;2022-09-27T02:26:45;26.50;;;16.57;;
5125;SDS011;63008;53.112;8.896;2022-09-27T02:28:57;27.70;;;17.17;;
5125;SDS011;63008;53.112;8.896;2022-09-27T02:31:05;29.17;;;16.70;;
5125;SDS011;63008;53.112;8.896;2022-09-27T02:33:09;22.50;;;16.50;;
5125;SDS011;63008;53.112;8.896;2022-09-27T02:37:29;25.13;;;16.07;;
5125;SDS011;63008;53.112;8.896;2022-09-27T02:39:31;26.20;;;14.37;;
5125;SDS011;63008;53.112;8.896;2022-09-27T02:41:32;24.80;;;15.70;;
5125;SDS011;63008;53.112;8.896;2022-09-27T02:43:33;25.13;;;15.67;;
5125;SDS011;63008;53.112;8.896;2022-09-27T02:45:41;21.43;;;13.57;;
5125;SDS011;63008;53.112;8.896;2022-09-27T02:47:48;23.83;;;14.70;;
5125;SDS011;63008;53.112;8.896;2022-09-27T02:50:07;24.23;;;13.10;;
5125;SDS011;63008;53.112;8.896;2022-09-27T02:59:32;14.90;;;11.47;;
5125;SDS011;63008;53.112;8.896;2022-09-27T03:02:05;13.53;;;10.27;;
5125;SDS011;63008;53.112;8.896;2022-09-27T03:04:13;16.63;;;10.37;;
5125;SDS011;63008;53.112;8.896;2022-09-27T03:06:19;19.80;;;11.37;;
5125;SDS011;63008;53.112;8.896;2022-09-27T03:08:22;14.97;;;10.90;;
5125;SDS011;63008;53.112;8.896;2022-09-27T03:10:25;22.33;;;10.50;;
5125;SDS011;63008;53.112;8.896;2022-09-27T03:12:27;23.40;;;10.77;;
5125;SDS011;63008;53.112;8.896;2022-09-27T03:14:29;22.50;;;11.30;;
5125;SDS011;63008;53.112;8.896;2022-09-27T03:16:30;17.27;;;10.90;;
5125;SDS011;63008;53.112;8.896;2022-09-27T03:18:31;17.67;;;11.10;;
5125;SDS011;63008;53.112;8.896;2022-09-27T03:20:33;15.77;;;10.07;;
5125;SDS011;63008;53.112;8.896;2022-09-27T03:22:34;16.70;;;9.43;;
5125;SDS011;63008;53.112;8.896;2022-09-27T03:24:35;16.17;;;9.23;;
5125;SDS011;63008;53.112;8.896;2022-09-27T03:26:36;17.30;;;8.33;;
5125;SDS011;63008;53.112;8.896;2022-09-27T03:28:37;13.23;;;7.33;;
5125;SDS011;63008;53.112;8.896;2022-09-27T03:30:39;11.77;;;7.53;;
5125;SDS011;63008;53.112;8.896;2022-09-27T03:32:44;13.67;;;7.23;;
5125;SDS011;63008;53.112;8.896;2022-09-27T03:34:45;18.07;;;7.20;;
5125;SDS011;63008;53.112;8.896;2022-09-27T03:36:47;10.17;;;6.00;;
5125;SDS011;63008;53.112;8.896;2022-09-27T03:38:48;8.90;;;5.83;;
5125;SDS011;63008;53.112;8.896;2022-09-27T03:40:49;11.33;;;5.30;;
5125;SDS011;63008;53.112;8.896;2022-09-27T03:42:50;7.30;;;5.07;;
5125;SDS011;63008;53.112;8.896;2022-09-27T03:44:51;5.67;;;4.80;;
5125;SDS011;63008;53.112;8.896;2022-09-27T03:46:52;8.97;;;5.03;;
5125;SDS011;63008;53.112;8.896;2022-09-27T03:48:53;11.07;;;4.50;;
5125;SDS011;63008;53.112;8.896;2022-09-27T03:50:54;5.30;;;3.20;;
5125;SDS011;63008;53.112;8.896;2022-09-27T03:52:55;5.20;;;3.10;;
5125;SDS011;63008;53.112;8.896;2022-09-27T03:54:56;5.13;;;3.17;;
5125;SDS011;63008;53.112;8.896;2022-09-27T03:56:57;3.63;;;2.60;;
5125;SDS011;63008;53.112;8.896;2022-09-27T03:58:58;6.93;;;3.13;;
5125;SDS011;63008;53.112;8.896;2022-09-27T04:00:59;3.80;;;2.70;;
5125;SDS011;63008;53.112;8.896;2022-09-27T04:03:00;10.30;;;2.83;;
5125;SDS011;63008;53.112;8.896;2022-09-27T04:05:02;6.13;;;2.67;;
5125;SDS011;63008;53.112;8.896;2022-09-27T04:07:03;6.23;;;2.20;;
5125;SDS011;63008;53.112;8.896;2022-09-27T04:09:04;3.13;;;2.47;;
5125;SDS011;63008;53.112;8.896;2022-09-27T04:11:05;3.53;;;2.40;;
5125;SDS011;63008;53.112;8.896;2022-09-27T04:13:07;4.67;;;2.70;;
5125;SDS011;63008;53.112;8.896;2022-09-27T04:15:08;8.63;;;3.30;;
5125;SDS011;63008;53.112;8.896;2022-09-27T04:17:10;7.20;;;2.93;;
5125;SDS011;63008;53.112;8.896;2022-09-27T04:19:11;6.13;;;3.67;;
5125;SDS011;63008;53.112;8.896;2022-09-27T04:21:12;6.37;;;3.07;;
5125;SDS011;63008;53.112;8.896;2022-09-27T04:23:14;7.90;;;3.67;;
5125;SDS011;63008;53.112;8.896;2022-09-27T04:25:15;8.40;;;4.37;;
5125;SDS011;63008;53.112;8.896;2022-09-27T04:27:16;8.07;;;4.10;;
5125;SDS011;63008;53.112;8.896;2022-09-27T04:29:17;10.30;;;5.03;;
5125;SDS011;63008;53.112;8.896;2022-09-27T04:31:18;5.83;;;4.60;;
5125;SDS011;63008;53.112;8.896;2022-09-27T04:33:19;11.43;;;5.17;;
5125;SDS011;63008;53.112;8.896;2022-09-27T04:35:21;9.33;;;6.80;;
5125;SDS011;63008;53.112;8.896;2022-09-27T04:37:40;12.43;;;6.73;;
5125;SDS011;63008;53.112;8.896;2022-09-27T04:39:43;14.17;;;6.23;;
5125;SDS011;63008;53.112;8.896;2022-09-27T04:41:44;13.10;;;7.07;;
5125;SDS011;63008;53.112;8.896;2022-09-27T04:43:45;13.90;;;6.83;;
5125;SDS011;63008;53.112;8.896;2022-09-27T04:45:46;10.97;;;7.13;;
5125;SDS011;63008;53.112;8.896;2022-09-27T04:47:48;16.53;;;6.80;;
5125;SDS011;63008;53.112;8.896;2022-09-27T04:49:51;9.87;;;7.30;;
5125;SDS011;63008;53.112;8.896;2022-09-27T04:51:52;11.70;;;7.13;;
5125;SDS011;63008;53.112;8.896;2022-09-27T04:53:54;14.50;;;8.27;;
5125;SDS011;63008;53.112;8.896;2022-09-27T04:55:57;12.03;;;6.53;;
5125;SDS011;63008;53.112;8.896;2022-09-27T04:57:59;8.13;;;7.13;;
5125;SDS011;63008;53.112;8.896;2022-09-27T05:00:01;13.63;;;7.07;;
5125;SDS011;63008;53.112;8.896;2022-09-27T05:02:05;9.97;;;6.87;;
5125;SDS011;63008;53.112;8.896;2022-09-27T05:04:06;14.10;;;7.47;;
5125;SDS011;63008;53.112;8.896;2022-09-27T05:06:07;11.40;;;7.17;;
5125;SDS011;63008;53.112;8.896;2022-09-27T05:08:08;13.27;;;7.63;;
5125;SDS011;63008;53.112;8.896;2022-09-27T05:10:10;17.23;;;8.13;;
5125;SDS011;63008;53.112;8.896;2022-09-27T05:12:11;14.93;;;7.43;;
5125;SDS011;63008;53.112;8.896;2022-09-27T05:14:13;11.70;;;7.47;;
5125;SDS011;63008;53.112;8.896;2022-09-27T05:16:14;17.27;;;7.77;;
5125;SDS011;63008;53.112;8.896;2022-09-27T05:18:16;14.60;;;7.83;;
5125;SDS011;63008;53.112;8.896;2022-09-27T05:20:18;12.07;;;7.77;;
5125;SDS011;63008;53.112;8.896;2022-09-27T05:22:20;8.77;;;6.80;;
5125;SDS011;63008;53.112;8.896;2022-09-27T05:24:21;13.57;;;7.83;;
5125;SDS011;63008;53.112;8.896;2022-09-27T05:26:22;10.47;;;7.10;;
5125;SDS011;63008;53.112;8.896;2022-09-27T05:28:23;14.30;;;7.07;;
5125;SDS011;63008;53.112;8.896;2022-09-27T05:30:24;11.83;;;7.80;;
5125;SDS011;63008;53.112;8.896;2022-09-27T05:32:27;11.63;;;8.03;;
5125;SDS011;63008;53.112;8.896;2022-09-27T05:34:29;9.77;;;7.77;;
5125;SDS011;63008;53.112;8.896;2022-09-27T05:36:33;16.97;;;8.60;;
5125;SDS011;63008;53.112;8.896;2022-09-27T05:38:34;16.13;;;8.97;;
5125;SDS011;63008;53.112;8.896;2022-09-27T05:40:36;20.37;;;7.93;;
5125;SDS011;63008;53.112;8.896;2022-09-27T05:42:37;17.40;;;7.57;;
5125;SDS011;63008;53.112;8.896;2022-09-27T05:44:40;11.90;;;6.23;;
5125;SDS011;63008;53.112;8.896;2022-09-27T05:46:41;16.57;;;6.27;;
5125;SDS011;63008;53.112;8.896;2022-09-27T05:48:42;11.43;;;6.07;;
5125;SDS011;63008;53.112;8.896;2022-09-27T05:50:43;10.80;;;5.00;;
5125;SDS011;63008;53.112;8.896;2022-09-27T05:52:45;8.57;;;4.77;;
5125;SDS011;63008;53.112;8.896;2022-09-27T05:54:46;10.00;;;4.87;;
5125;SDS011;63008;53.112;8.896;2022-09-27T05:56:47;6.63;;;5.20;;
5125;SDS011;63008;53.112;8.896;2022-09-27T05:58:48;5.77;;;4.63;;
5125;SDS011;63008;53.112;8.896;2022-09-27T06:00:49;7.07;;;4.20;;
5125;SDS011;63008;53.112;8.896;2022-09-27T06:02:57;5.70;;;5.13;;
5125;SDS011;63008;53.112;8.896;2022-09-27T06:05:00;8.50;;;5.27;;
5125;SDS011;63008;53.112;8.896;2022-09-27T06:07:03;5.07;;;4.00;;
5125;SDS011;63008;53.112;8.896;2022-09-27T06:09:08;4.50;;;4.10;;
5125;SDS011;63008;53.112;8.896;2022-09-27T06:11:11;8.93;;;4.80;;
5125;SDS011;63008;53.112;8.896;2022-09-27T06:13:13;4.60;;;4.20;;
5125;SDS011;63008;53.112;8.896;2022-09-27T06:15:15;5.33;;;4.90;;
5125;SDS011;63008;53.112;8.896;2022-09-27T06:17:17;12.57;;;4.33;;
5125;SDS011;63008;53.112;8.896;2022-09-27T06:19:18;7.50;;;4.97;;
5125;SDS011;63008;53.112;8.896;2022-09-27T06:21:20;8.70;;;5.20;;
5125;SDS011;63008;53.112;8.896;2022-09-27T06:23:22;5.27;;;3.90;;
5125;SDS011;63008;53.112;8.896;2022-09-27T06:25:23;7.20;;;5.57;;
5125;SDS011;63008;53.112;8.896;2022-09-27T06:27:27;11.57;;;6.20;;
5125;SDS011;63008;53.112;8.896;2022-09-27T06:30:26;12.80;;;5.97;;
5125;SDS011;63008;53.112;8.896;2022-09-27T06:32:27;6.40;;;5.40;;
5125;SDS011;63008;53.112;8.896;2022-09-27T06:34:31;6.00;;;5.40;;
5125;SDS011;63008;53.112;8.896;2022-09-27T06:36:32;6.07;;;5.60;;
5125;SDS011;63008;53.112;8.896;2022-09-27T06:38:33;6.50;;;5.90;;
5125;SDS011;63008;53.112;8.896;2022-09-27T06:40:35;6.73;;;5.77;;
5125;SDS011;63008;53.112;8.896;2022-09-27T06:42:36;13.03;;;6.70;;
5125;SDS011;63008;53.112;8.896;2022-09-27T06:44:39;7.20;;;6.40;;
5125;SDS011;63008;53.112;8.896;2022-09-27T06:46:41;9.00;;;6.37;;
5125;SDS011;63008;53.112;8.896;2022-09-27T06:48:42;10.63;;;6.07;;
5125;SDS011;63008;53.112;8.896;2022-09-27T06:50:43;11.93;;;6.23;;
5125;SDS011;63008;53.112;8.896;2022-09-27T06:52:49;12.43;;;5.40;;
5125;SDS011;63008;53.112;8.896;2022-09-27T06:54:50;9.73;;;5.87;;
5125;SDS011;63008;53.112;8.896;2022-09-27T06:56:51;7.37;;;5.50;;
5125;SDS011;63008;53.112;8.896;2022-09-27T06:58:52;11.70;;;6.30;;
5125;SDS011;63008;53.112;8.896;2022-09-27T07:01:12;8.20;;;4.70;;
5125;SDS011;63008;53.112;8.896;2022-09-27T07:03:13;9.00;;;4.80;;
5125;SDS011;63008;53.112;8.896;2022-09-27T07:05:15;11.57;;;5.43;;
5125;SDS011;63008;53.112;8.896;2022-09-27T07:07:17;7.27;;;5.30;;
5125;SDS011;63008;53.112;8.896;2022-09-27T07:09:18;15.43;;;5.90;;
5125;SDS011;63008;53.112;8.896;2022-09-27T07:11:19;11.00;;;5.10;;
5125;SDS011;63008;53.112;8.896;2022-09-27T07:13:23;6.53;;;4.30;;
5125;SDS011;63008;53.112;8.896;2022-09-27T07:15:24;8.07;;;4.67;;
5125;SDS011;63008;53.112;8.896;2022-09-27T07:17:25;5.43;;;3.23;;
5125;SDS011;63008;53.112;8.896;2022-09-27T07:19:27;5.47;;;3.60;;
5125;SDS011;63008;53.112;8.896;2022-09-27T07:21:28;6.23;;;3.80;;
5125;SDS011;63008;53.112;8.896;2022-09-27T07:23:29;7.27;;;3.23;;
5125;SDS011;63008;53.112;8.896;2022-09-27T07:25:31;3.17;;;2.70;;
5125;SDS011;63008;53.112;8.896;2022-09-27T07:27:32;6.00;;;2.87;;
5125;SDS011;63008;53.112;8.896;2022-09-27T07:29:34;4.60;;;2.80;;
5125;SDS011;63008;53.112;8.896;2022-09-27T07:31:35;3.67;;;2.90;;
5125;SDS011;63008;53.112;8.896;2022-09-27T07:33:37;6.40;;;3.27;;
5125;SDS011;63008;53.112;8.896;2022-09-27T07:35:40;3.47;;;2.97;;
5125;SDS011;63008;53.112;8.896;2022-09-27T07:37:41;9.47;;;3.57;;
5125;SDS011;63008;53.112;8.896;2022-09-27T07:39:42;4.73;;;3.00;;
5125;SDS011;63008;53.112;8.896;2022-09-27T07:41:44;8.33;;;3.73;;
5125;SDS011;63008;53.112;8.896;2022-09-27T07:43:46;10.17;;;3.20;;
5125;SDS011;63008;53.112;8.896;2022-09-27T07:45:47;9.53;;;3.53;;
5125;SDS011;63008;53.112;8.896;2022-09-27T07:47:48;4.00;;;2.70;;
5125;SDS011;63008;53.112;8.896;2022-09-27T07:49:50;4.87;;;2.93;;
5125;SDS011;63008;53.112;8.896;2022-09-27T07:51:55;9.70;;;3.10;;
5125;SDS011;63008;53.112;8.896;2022-09-27T07:53:56;9.60;;;3.40;;
5125;SDS011;63008;53.112;8.896;2022-09-27T07:55:57;15.90;;;3.80;;
5125;SDS011;63008;53.112;8.896;2022-09-27T07:58:02;9.93;;;4.93;;
5125;SDS011;63008;53.112;8.896;2022-09-27T08:00:06;5.00;;;2.87;;
5125;SDS011;63008;53.112;8.896;2022-09-27T08:02:12;15.37;;;3.80;;
5125;SDS011;63008;53.112;8.896;2022-09-27T08:04:15;4.53;;;2.90;;
5125;SDS011;63008;53.112;8.896;2022-09-27T08:06:16;7.43;;;3.33;;
5125;SDS011;63008;53.112;8.896;2022-09-27T08:08:18;6.20;;;3.33;;
5125;SDS011;63008;53.112;8.896;2022-09-27T08:10:19;3.53;;;3.10;;
5125;SDS011;63008;53.112;8.896;2022-09-27T08:12:20;4.17;;;3.53;;
5125;SDS011;63008;53.112;8.896;2022-09-27T08:14:22;6.90;;;4.30;;
5125;SDS011;63008;53.112;8.896;2022-09-27T08:16:23;8.70;;;3.90;;
5125;SDS011;63008;53.112;8.896;2022-09-27T08:18:24;7.10;;;4.23;;
5125;SDS011;63008;53.112;8.896;2022-09-27T08:20:25;7.17;;;4.20;;
5125;SDS011;63008;53.112;8.896;2022-09-27T08:22:26;5.90;;;3.03;;
5125;SDS011;63008;53.112;8.896;2022-09-27T08:24:27;8.97;;;3.10;;
5125;SDS011;63008;53.112;8.896;2022-09-27T08:26:29;5.70;;;2.60;;
5125;SDS011;63008;53.112;8.896;2022-09-27T08:28:30;4.83;;;2.53;;
5125;SDS011;63008;53.112;8.896;2022-09-27T08:30:31;3.53;;;1.70;;
5125;SDS011;63008;53.112;8.896;2022-09-27T08:32:33;2.83;;;1.60;;
5125;SDS011;63008;53.112;8.896;2022-09-27T08:34:34;2.70;;;2.50;;
5125;SDS011;63008;53.112;8.896;2022-09-27T08:36:35;3.53;;;1.90;;
5125;SDS011;63008;53.112;8.896;2022-09-27T08:38:37;2.50;;;1.53;;
5125;SDS011;63008;53.112;8.896;2022-09-27T08:43:02;4.47;;;1.93;;
5125;SDS011;63008;53.112;8.896;2022-09-27T08:45:23;3.50;;;1.50;;
5125;SDS011;63008;53.112;8.896;2022-09-27T08:47:54;3.27;;;1.40;;
5125;SDS011;63008;53.112;8.896;2022-09-27T08:52:07;7.27;;;1.40;;
5125;SDS011;63008;53.112;8.896;2022-09-27T08:54:21;5.00;;;1.40;;
5125;SDS011;63008;53.112;8.896;2022-09-27T08:56:25;3.53;;;1.60;;
5125;SDS011;63008;53.112;8.896;2022-09-27T08:58:44;5.10;;;1.57;;
5125;SDS011;63008;53.112;8.896;2022-09-27T09:00:49;8.00;;;1.43;;
5125;SDS011;63008;53.112;8.896;2022-09-27T09:02:55;3.27;;;1.20;;
5125;SDS011;63008;53.112;8.896;2022-09-27T09:05:07;2.00;;;1.07;;
5125;SDS011;63008;53.112;8.896;2022-09-27T09:07:19;4.93;;;1.67;;
5125;SDS011;63008;53.112;8.896;2022-09-27T09:12:07;2.97;;;1.43;;
5125;SDS011;63008;53.112;8.896;2022-09-27T09:14:55;2.40;;;1.10;;
5125;SDS011;63008;53.112;8.896;2022-09-27T09:16:57;2.07;;;1.03;;
5125;SDS011;63008;53.112;8.896;2022-09-27T09:26:41;1.90;;;0.57;;
5125;SDS011;63008;53.112;8.896;2022-09-27T09:33:23;3.60;;;0.80;;
5125;SDS011;63008;53.112;8.896;2022-09-27T09:35:41;3.10;;;0.50;;
5125;SDS011;63008;53.112;8.896;2022-09-27T09:37:52;2.10;;;0.50;;
5125;SDS011;63008;53.112;8.896;2022-09-27T09:39:58;2.63;;;0.80;;
5125;SDS011;63008;53.112;8.896;2022-09-27T09:46:54;2.83;;;0.80;;
5125;SDS011;63008;53.112;8.896;2022-09-27T09:49:00;0.67;;;0.67;;
5125;SDS011;63008;53.112;8.896;2022-09-27T09:51:12;1.87;;;0.60;;
5125;SDS011;63008;53.112;8.896;2022-09-27T09:55:42;5.07;;;1.93;;
5125;SDS011;63008;53.112;8.896;2022-09-27T09:58:00;2.13;;;0.73;;
5125;SDS011;63008;53.112;8.896;2022-09-27T10:00:21;6.57;;;1.23;;
5125;SDS011;63008;53.112;8.896;2022-09-27T10:02:36;3.63;;;1.13;;
5125;SDS011;63008;53.112;8.896;2022-09-27T10:04:39;4.10;;;1.40;;
5125;SDS011;63008;53.112;8.896;2022-09-27T10:06:40;3.87;;;1.30;;
5125;SDS011;63008;53.112;8.896;2022-09-27T10:08:41;1.90;;;1.10;;
5125;SDS011;63008;53.112;8.896;2022-09-27T10:10:43;9.17;;;1.80;;
5125;SDS011;63008;53.112;8.896;2022-09-27T10:12:44;4.40;;;1.53;;
5125;SDS011;63008;53.112;8.896;2022-09-27T10:14:46;3.00;;;2.00;;
5125;SDS011;63008;53.112;8.896;2022-09-27T10:16:58;5.77;;;2.17;;
5125;SDS011;63008;53.112;8.896;2022-09-27T10:19:01;4.90;;;2.17;;
5125;SDS011;63008;53.112;8.896;2022-09-27T10:21:06;3.53;;;1.27;;
5125;SDS011;63008;53.112;8.896;2022-09-27T10:23:17;3.90;;;1.50;;
5125;SDS011;63008;53.112;8.896;2022-09-27T10:25:20;3.00;;;1.87;;
5125;SDS011;63008;53.112;8.896;2022-09-27T10:27:23;5.53;;;1.93;;
5125;SDS011;63008;53.112;8.896;2022-09-27T10:29:32;2.17;;;1.63;;
5125;SDS011;63008;53.112;8.896;2022-09-27T10:31:35;2.07;;;1.80;;
5125;SDS011;63008;53.112;8.896;2022-09-27T10:35:54;5.17;;;1.90;;
5125;SDS011;63008;53.112;8.896;2022-09-27T10:40:28;2.20;;;1.93;;
5125;SDS011;63008;53.112;8.896;2022-09-27T10:44:35;5.90;;;1.90;;
5125;SDS011;63008;53.112;8.896;2022-09-27T10:46:36;3.60;;;2.07;;
5125;SDS011;63008;53.112;8.896;2022-09-27T10:48:38;2.07;;;1.27;;
5125;SDS011;63008;53.112;8.896;2022-09-27T10:50:42;9.77;;;3.40;;
5125;SDS011;63008;53.112;8.896;2022-09-27T10:53:15;2.83;;;1.57;;
5125;SDS011;63008;53.112;8.896;2022-09-27T10:55:21;2.30;;;1.40;;
5125;SDS011;63008;53.112;8.896;2022-09-27T10:57:25;9.83;;;1.47;;
5125;SDS011;63008;53.112;8.896;2022-09-27T10:59:28;2.90;;;1.23;;
5125;SDS011;63008;53.112;8.896;2022-09-27T11:01:41;2.10;;;1.00;;
5125;SDS011;63008;53.112;8.896;2022-09-27T11:03:48;1.60;;;1.10;;
5125;SDS011;63008;53.112;8.896;2022-09-27T11:05:53;4.93;;;1.70;;
5125;SDS011;63008;53.112;8.896;2022-09-27T11:07:58;4.13;;;2.60;;
5125;SDS011;63008;53.112;8.896;2022-09-27T11:10:14;6.17;;;1.80;;
5125;SDS011;63008;53.112;8.896;2022-09-27T11:12:31;1.90;;;1.40;;
5125;SDS011;63008;53.112;8.896;2022-09-27T11:14:35;3.23;;;0.90;;
5125;SDS011;63008;53.112;8.896;2022-09-27T11:19:09;2.47;;;1.37;;
5125;SDS011;63008;53.112;8.896;2022-09-27T11:23:47;2.67;;;1.43;;
5125;SDS011;63008;53.112;8.896;2022-09-27T11:44:20;3.30;;;2.03;;
5125;SDS011;63008;53.112;8.896;2022-09-27T11:46:35;3.37;;;2.77;;
5125;SDS011;63008;53.112;8.896;2022-09-27T12:00:48;4.13;;;2.13;;
5125;SDS011;63008;53.112;8.896;2022-09-27T12:10:40;5.83;;;2.30;;
5125;SDS011;63008;53.112;8.896;2022-09-27T12:12:49;5.93;;;2.10;;
5125;SDS011;63008;53.112;8.896;2022-09-27T12:14:56;4.20;;;2.20;;
5125;SDS011;63008;53.112;8.896;2022-09-27T12:17:01;4.87;;;2.33;;
5125;SDS011;63008;53.112;8.896;2022-09-27T12:19:09;5.57;;;2.50;;
5125;SDS011;63008;53.112;8.896;2022-09-27T12:21:21;7.27;;;2.43;;
5125;SDS011;63008;53.112;8.896;2022-09-27T12:23:35;4.83;;;2.07;;
5125;SDS011;63008;53.112;8.896;2022-09-27T12:25:40;3.03;;;2.10;;
5125;SDS011;63008;53.112;8.896;2022-09-27T12:27:48;10.90;;;2.37;;
5125;SDS011;63008;53.112;8.896;2022-09-27T12:29:55;5.90;;;2.50;;
5125;SDS011;63008;53.112;8.896;2022-09-27T12:34:10;5.77;;;2.30;;
5125;SDS011;63008;53.112;8.896;2022-09-27T12:36:14;4.03;;;1.70;;
5125;SDS011;63008;53.112;8.896;2022-09-27T12:40:38;1.90;;;1.40;;
5125;SDS011;63008;53.112;8.896;2022-09-27T12:43:16;6.47;;;1.53;;
5125;SDS011;63008;53.112;8.896;2022-09-27T12:45:25;6.10;;;2.03;;
5125;SDS011;63008;53.112;8.896;2022-09-27T12:52:22;6.07;;;2.03;;
5125;SDS011;63008;53.112;8.896;2022-09-27T12:57:20;5.23;;;1.80;;
5125;SDS011;63008;53.112;8.896;2022-09-27T13:09:58;6.97;;;1.90;;
5125;SDS011;63008;53.112;8.896;2022-09-27T13:12:19;5.10;;;1.70;;
5125;SDS011;63008;53.112;8.896;2022-09-27T13:14:24;5.23;;;1.43;;
5125;SDS011;63008;53.112;8.896;2022-09-27T13:16:28;5.83;;;1.70;;
5125;SDS011;63008;53.112;8.896;2022-09-27T13:22:36;3.23;;;1.80;;
5125;SDS011;63008;53.112;8.896;2022-09-27T13:24:40;4.30;;;1.67;;
5125;SDS011;63008;53.112;8.896;2022-09-27T13:26:43;8.73;;;2.27;;
5125;SDS011;63008;53.112;8.896;2022-09-27T13:30:47;5.30;;;1.40;;
5125;SDS011;63008;53.112;8.896;2022-09-27T13:35:16;1.40;;;1.07;;
5125;SDS011;63008;53.112;8.896;2022-09-27T13:39:23;3.90;;;1.30;;
5125;SDS011;63008;53.112;8.896;2022-09-27T13:41:24;4.57;;;1.10;;
5125;SDS011;63008;53.112;8.896;2022-09-27T13:47:58;3.90;;;1.40;;
5125;SDS011;63008;53.112;8.896;2022-09-27T13:50:13;6.53;;;1.20;;
5125;SDS011;63008;53.112;8.896;2022-09-27T13:54:37;1.43;;;0.80;;
5125;SDS011;63008;53.112;8.896;2022-09-27T13:56:50;0.83;;;0.83;;
5125;SDS011;63008;53.112;8.896;2022-09-27T13:58:59;2.07;;;0.90;;
5125;SDS011;63008;53.112;8.896;2022-09-27T14:01:04;3.00;;;0.97;;
5125;SDS011;63008;53.112;8.896;2022-09-27T14:03:16;1.00;;;0.90;;
5125;SDS011;63008;53.112;8.896;2022-09-27T14:05:26;0.63;;;0.63;;
5125;SDS011;63008;53.112;8.896;2022-09-27T14:07:41;7.93;;;4.53;;
5125;SDS011;63008;53.112;8.896;2022-09-27T14:09:45;1.13;;;0.80;;
5125;SDS011;63008;53.112;8.896;2022-09-27T14:11:52;2.30;;;0.60;;
5125;SDS011;63008;53.112;8.896;2022-09-27T14:13:57;1.27;;;0.57;;
5125;SDS011;63008;53.112;8.896;2022-09-27T14:16:02;0.63;;;0.53;;
5125;SDS011;63008;53.112;8.896;2022-09-27T14:18:04;1.23;;;0.50;;
5125;SDS011;63008;53.112;8.896;2022-09-27T14:20:30;0.60;;;0.50;;
5125;SDS011;63008;53.112;8.896;2022-09-27T14:22:40;0.60;;;0.60;;
5125;SDS011;63008;53.112;8.896;2022-09-27T14:26:42;3.17;;;0.50;;
5125;SDS011;63008;53.112;8.896;2022-09-27T14:28:43;0.40;;;0.40;;
5125;SDS011;63008;53.112;8.896;2022-09-27T14:30:44;1.13;;;0.37;;
5125;SDS011;63008;53.112;8.896;2022-09-27T14:32:50;0.40;;;0.40;;
5125;SDS011;63008;53.112;8.896;2022-09-27T14:35:13;0.60;;;0.40;;
5125;SDS011;63008;53.112;8.896;2022-09-27T14:37:35;0.50;;;0.50;;
5125;SDS011;63008;53.112;8.896;2022-09-27T14:39:36;2.23;;;0.77;;
5125;SDS011;63008;53.112;8.896;2022-09-27T14:41:37;1.93;;;0.70;;
5125;SDS011;63008;53.112;8.896;2022-09-27T14:43:43;1.90;;;0.90;;
5125;SDS011;63008;53.112;8.896;2022-09-27T14:45:46;1.17;;;0.60;;
5125;SDS011;63008;53.112;8.896;2022-09-27T14:47:51;2.00;;;0.70;;
5125;SDS011;63008;53.112;8.896;2022-09-27T14:49:53;0.93;;;0.70;;
5125;SDS011;63008;53.112;8.896;2022-09-27T14:51:56;4.00;;;0.70;;
5125;SDS011;63008;53.112;8.896;2022-09-27T14:53:58;0.60;;;0.50;;
5125;SDS011;63008;53.112;8.896;2022-09-27T14:56:01;1.17;;;0.50;;
5125;SDS011;63008;53.112;8.896;2022-09-27T14:58:03;0.50;;;0.40;;
5125;SDS011;63008;53.112;8.896;2022-09-27T15:00:14;1.20;;;0.50;;
5125;SDS011;63008;53.112;8.896;2022-09-27T15:02:21;0.80;;;0.50;;
5125;SDS011;63008;53.112;8.896;2022-09-27T15:04:25;0.80;;;0.50;;
5125;SDS011;63008;53.112;8.896;2022-09-27T15:06:28;0.70;;;0.60;;
5125;SDS011;63008;53.112;8.896;2022-09-27T15:08:30;0.50;;;0.50;;
5125;SDS011;63008;53.112;8.896;2022-09-27T15:10:35;0.40;;;0.40;;
5125;SDS011;63008;53.112;8.896;2022-09-27T15:12:38;0.70;;;0.70;;